sensor_id;sensor_type;location;lat;lon;timestamp;temperature;humidity
47805;DHT22;33568;45.286;9.900;2022-07-12T00:01:11;28.80;56.70
47805;DHT22;33568;45.286;9.900;2022-07-12T00:03:37;28.80;57.00
47805;DHT22;33568;45.286;9.900;2022-07-12T00:06:04;28.90;57.20
47805;DHT22;33568;45.286;9.900;2022-07-12T00:08:30;29.00;57.10
47805;DHT22;33568;45.286;9.900;2022-07-12T00:10:57;28.90;56.80
47805;DHT22;33568;45.286;9.900;2022-07-12T00:13:24;28.90;57.00
47805;DHT22;33568;45.286;9.900;2022-07-12T00:15:50;28.80;57.10
47805;DHT22;33568;45.286;9.900;2022-07-12T00:18:17;28.90;57.10
47805;DHT22;33568;45.286;9.900;2022-07-12T00:20:43;28.90;57.20
47805;DHT22;33568;45.286;9.900;2022-07-12T00:23:10;28.90;57.10
47805;DHT22;33568;45.286;9.900;2022-07-12T00:25:37;28.70;57.10
47805;DHT22;33568;45.286;9.900;2022-07-12T00:28:03;28.70;57.30
47805;DHT22;33568;45.286;9.900;2022-07-12T00:30:30;28.60;57.20
47805;DHT22;33568;45.286;9.900;2022-07-12T00:32:56;28.60;57.40
47805;DHT22;33568;45.286;9.900;2022-07-12T00:35:23;28.50;57.60
47805;DHT22;33568;45.286;9.900;2022-07-12T00:37:50;28.40;57.70
47805;DHT22;33568;45.286;9.900;2022-07-12T00:40:17;28.50;57.80
47805;DHT22;33568;45.286;9.900;2022-07-12T00:42:44;28.50;57.80
47805;DHT22;33568;45.286;9.900;2022-07-12T00:45:11;28.50;57.60
47805;DHT22;33568;45.286;9.900;2022-07-12T00:47:46;28.40;57.80
47805;DHT22;33568;45.286;9.900;2022-07-12T00:50:17;28.50;57.70
47805;DHT22;33568;45.286;9.900;2022-07-12T00:52:48;28.60;57.50
47805;DHT22;33568;45.286;9.900;2022-07-12T00:55:17;28.80;57.40
47805;DHT22;33568;45.286;9.900;2022-07-12T00:57:44;28.50;57.60
47805;DHT22;33568;45.286;9.900;2022-07-12T01:00:18;28.40;57.90
47805;DHT22;33568;45.286;9.900;2022-07-12T01:02:47;28.40;57.90
47805;DHT22;33568;45.286;9.900;2022-07-12T01:05:14;28.40;58.00
47805;DHT22;33568;45.286;9.900;2022-07-12T01:07:40;28.50;57.80
47805;DHT22;33568;45.286;9.900;2022-07-12T01:10:07;28.50;57.70
47805;DHT22;33568;45.286;9.900;2022-07-12T01:12:34;28.50;57.80
47805;DHT22;33568;45.286;9.900;2022-07-12T01:15:01;28.50;57.80
47805;DHT22;33568;45.286;9.900;2022-07-12T01:17:28;28.50;57.80
47805;DHT22;33568;45.286;9.900;2022-07-12T01:19:56;28.50;57.70
47805;DHT22;33568;45.286;9.900;2022-07-12T01:22:31;28.50;57.90
47805;DHT22;33568;45.286;9.900;2022-07-12T01:25:00;28.40;58.10
47805;DHT22;33568;45.286;9.900;2022-07-12T01:27:27;28.50;57.90
47805;DHT22;33568;45.286;9.900;2022-07-12T01:29:55;28.40;58.00
47805;DHT22;33568;45.286;9.900;2022-07-12T01:32:22;28.40;58.00
47805;DHT22;33568;45.286;9.900;2022-07-12T01:34:56;28.50;58.20
47805;DHT22;33568;45.286;9.900;2022-07-12T01:37:24;28.30;58.00
47805;DHT22;33568;45.286;9.900;2022-07-12T01:39:54;28.20;58.30
47805;DHT22;33568;45.286;9.900;2022-07-12T01:42:22;28.20;58.40
47805;DHT22;33568;45.286;9.900;2022-07-12T01:44:49;28.10;58.30
47805;DHT22;33568;45.286;9.900;2022-07-12T01:47:26;28.00;58.50
47805;DHT22;33568;45.286;9.900;2022-07-12T01:49:53;28.00;58.50
47805;DHT22;33568;45.286;9.900;2022-07-12T01:52:19;27.90;58.60
47805;DHT22;33568;45.286;9.900;2022-07-12T01:54:46;27.90;58.90
47805;DHT22;33568;45.286;9.900;2022-07-12T01:57:13;28.00;59.00
47805;DHT22;33568;45.286;9.900;2022-07-12T01:59:42;28.10;58.80
47805;DHT22;33568;45.286;9.900;2022-07-12T02:02:08;28.10;58.50
47805;DHT22;33568;45.286;9.900;2022-07-12T02:04:35;28.10;58.40
47805;DHT22;33568;45.286;9.900;2022-07-12T02:07:03;28.10;58.40
47805;DHT22;33568;45.286;9.900;2022-07-12T02:09:30;28.20;58.30
47805;DHT22;33568;45.286;9.900;2022-07-12T02:11:57;28.10;58.40
47805;DHT22;33568;45.286;9.900;2022-07-12T02:14:24;28.30;58.50
47805;DHT22;33568;45.286;9.900;2022-07-12T02:16:52;28.30;58.40
47805;DHT22;33568;45.286;9.900;2022-07-12T02:19:19;28.30;58.40
47805;DHT22;33568;45.286;9.900;2022-07-12T02:21:48;28.40;58.30
47805;DHT22;33568;45.286;9.900;2022-07-12T02:24:14;28.50;58.40
47805;DHT22;33568;45.286;9.900;2022-07-12T02:26:42;28.50;58.20
47805;DHT22;33568;45.286;9.900;2022-07-12T02:29:09;28.60;58.00
47805;DHT22;33568;45.286;9.900;2022-07-12T02:31:37;28.60;57.90
47805;DHT22;33568;45.286;9.900;2022-07-12T02:34:03;28.70;57.70
47805;DHT22;33568;45.286;9.900;2022-07-12T02:36:30;28.80;57.50
47805;DHT22;33568;45.286;9.900;2022-07-12T02:38:56;28.80;57.50
47805;DHT22;33568;45.286;9.900;2022-07-12T02:41:24;28.80;57.40
47805;DHT22;33568;45.286;9.900;2022-07-12T02:43:51;28.80;57.60
47805;DHT22;33568;45.286;9.900;2022-07-12T02:46:17;28.80;57.40
47805;DHT22;33568;45.286;9.900;2022-07-12T02:48:43;29.00;57.20
47805;DHT22;33568;45.286;9.900;2022-07-12T02:51:10;29.00;57.00
47805;DHT22;33568;45.286;9.900;2022-07-12T02:53:37;29.00;57.00
47805;DHT22;33568;45.286;9.900;2022-07-12T02:56:04;29.00;57.00
47805;DHT22;33568;45.286;9.900;2022-07-12T02:58:31;29.00;56.90
47805;DHT22;33568;45.286;9.900;2022-07-12T03:00:57;29.00;56.80
47805;DHT22;33568;45.286;9.900;2022-07-12T03:03:24;28.80;56.80
47805;DHT22;33568;45.286;9.900;2022-07-12T03:05:51;28.70;56.90
47805;DHT22;33568;45.286;9.900;2022-07-12T03:08:17;28.70;56.70
47805;DHT22;33568;45.286;9.900;2022-07-12T03:10:44;28.80;57.50
47805;DHT22;33568;45.286;9.900;2022-07-12T03:13:10;28.80;57.00
47805;DHT22;33568;45.286;9.900;2022-07-12T03:15:36;28.80;57.00
47805;DHT22;33568;45.286;9.900;2022-07-12T03:18:03;28.80;56.60
47805;DHT22;33568;45.286;9.900;2022-07-12T03:20:30;28.70;56.50
47805;DHT22;33568;45.286;9.900;2022-07-12T03:22:57;28.60;56.80
47805;DHT22;33568;45.286;9.900;2022-07-12T03:25:24;28.60;56.90
47805;DHT22;33568;45.286;9.900;2022-07-12T03:27:50;28.60;56.90
47805;DHT22;33568;45.286;9.900;2022-07-12T03:30:17;28.50;57.10
47805;DHT22;33568;45.286;9.900;2022-07-12T03:32:44;28.50;57.00
47805;DHT22;33568;45.286;9.900;2022-07-12T03:35:11;28.50;56.80
47805;DHT22;33568;45.286;9.900;2022-07-12T03:37:44;28.30;56.90
47805;DHT22;33568;45.286;9.900;2022-07-12T03:40:11;28.30;57.20
47805;DHT22;33568;45.286;9.900;2022-07-12T03:42:39;28.30;57.30
47805;DHT22;33568;45.286;9.900;2022-07-12T03:45:06;28.40;57.30
47805;DHT22;33568;45.286;9.900;2022-07-12T03:47:33;28.50;57.20
47805;DHT22;33568;45.286;9.900;2022-07-12T03:50:05;28.50;57.00
47805;DHT22;33568;45.286;9.900;2022-07-12T03:52:32;28.50;57.00
47805;DHT22;33568;45.286;9.900;2022-07-12T03:55:00;28.50;57.20
47805;DHT22;33568;45.286;9.900;2022-07-12T03:57:28;28.50;57.40
47805;DHT22;33568;45.286;9.900;2022-07-12T03:59:56;28.60;57.00
47805;DHT22;33568;45.286;9.900;2022-07-12T04:02:23;28.50;57.00
47805;DHT22;33568;45.286;9.900;2022-07-12T04:04:50;28.50;57.10
47805;DHT22;33568;45.286;9.900;2022-07-12T04:07:17;28.60;57.10
47805;DHT22;33568;45.286;9.900;2022-07-12T04:09:44;28.60;57.10
47805;DHT22;33568;45.286;9.900;2022-07-12T04:12:10;28.70;57.00
47805;DHT22;33568;45.286;9.900;2022-07-12T04:14:36;28.60;57.00
47805;DHT22;33568;45.286;9.900;2022-07-12T04:17:04;28.70;57.00
47805;DHT22;33568;45.286;9.900;2022-07-12T04:19:34;28.70;56.90
47805;DHT22;33568;45.286;9.900;2022-07-12T04:22:03;28.70;56.90
47805;DHT22;33568;45.286;9.900;2022-07-12T04:24:30;28.60;56.90
47805;DHT22;33568;45.286;9.900;2022-07-12T04:26:56;28.70;57.00
47805;DHT22;33568;45.286;9.900;2022-07-12T04:29:24;28.70;56.90
47805;DHT22;33568;45.286;9.900;2022-07-12T04:31:50;28.80;56.90
47805;DHT22;33568;45.286;9.900;2022-07-12T04:34:16;28.80;56.90
47805;DHT22;33568;45.286;9.900;2022-07-12T04:36:44;28.80;56.90
47805;DHT22;33568;45.286;9.900;2022-07-12T04:39:11;28.80;56.90
47805;DHT22;33568;45.286;9.900;2022-07-12T04:41:38;28.80;56.90
47805;DHT22;33568;45.286;9.900;2022-07-12T04:44:06;28.80;56.90
47805;DHT22;33568;45.286;9.900;2022-07-12T04:46:33;28.80;57.40
47805;DHT22;33568;45.286;9.900;2022-07-12T04:49:00;28.90;56.80
47805;DHT22;33568;45.286;9.900;2022-07-12T04:51:26;28.90;56.70
47805;DHT22;33568;45.286;9.900;2022-07-12T04:53:53;29.00;56.70
47805;DHT22;33568;45.286;9.900;2022-07-12T04:56:20;29.00;56.60
47805;DHT22;33568;45.286;9.900;2022-07-12T04:58:46;29.00;56.60
47805;DHT22;33568;45.286;9.900;2022-07-12T05:01:13;29.00;56.80
47805;DHT22;33568;45.286;9.900;2022-07-12T05:03:40;28.90;56.90
47805;DHT22;33568;45.286;9.900;2022-07-12T05:06:08;28.90;57.00
47805;DHT22;33568;45.286;9.900;2022-07-12T05:08:35;28.80;57.10
47805;DHT22;33568;45.286;9.900;2022-07-12T05:11:01;28.80;57.10
47805;DHT22;33568;45.286;9.900;2022-07-12T05:13:28;28.90;57.20
47805;DHT22;33568;45.286;9.900;2022-07-12T05:15:54;28.90;57.30
47805;DHT22;33568;45.286;9.900;2022-07-12T05:18:24;28.90;57.20
47805;DHT22;33568;45.286;9.900;2022-07-12T05:20:50;29.00;57.10
47805;DHT22;33568;45.286;9.900;2022-07-12T05:23:17;29.00;57.20
47805;DHT22;33568;45.286;9.900;2022-07-12T05:25:44;29.00;57.80
47805;DHT22;33568;45.286;9.900;2022-07-12T05:28:10;29.00;57.20
47805;DHT22;33568;45.286;9.900;2022-07-12T05:30:38;29.00;57.20
47805;DHT22;33568;45.286;9.900;2022-07-12T05:33:04;29.10;57.20
47805;DHT22;33568;45.286;9.900;2022-07-12T05:35:32;29.20;57.10
47805;DHT22;33568;45.286;9.900;2022-07-12T05:37:58;29.10;57.10
47805;DHT22;33568;45.286;9.900;2022-07-12T05:40:27;29.20;57.10
47805;DHT22;33568;45.286;9.900;2022-07-12T05:42:53;29.20;57.10
47805;DHT22;33568;45.286;9.900;2022-07-12T05:45:21;29.10;57.10
47805;DHT22;33568;45.286;9.900;2022-07-12T05:47:51;29.00;57.30
47805;DHT22;33568;45.286;9.900;2022-07-12T05:50:17;28.90;57.40
47805;DHT22;33568;45.286;9.900;2022-07-12T05:52:44;28.90;57.60
47805;DHT22;33568;45.286;9.900;2022-07-12T05:55:31;28.90;57.80
47805;DHT22;33568;45.286;9.900;2022-07-12T05:57:57;28.90;58.00
47805;DHT22;33568;45.286;9.900;2022-07-12T06:00:24;28.80;58.20
47805;DHT22;33568;45.286;9.900;2022-07-12T06:02:50;28.90;58.40
47805;DHT22;33568;45.286;9.900;2022-07-12T06:05:17;29.00;58.30
47805;DHT22;33568;45.286;9.900;2022-07-12T06:07:43;29.00;58.40
47805;DHT22;33568;45.286;9.900;2022-07-12T06:10:10;29.00;58.50
47805;DHT22;33568;45.286;9.900;2022-07-12T06:12:36;29.00;58.50
47805;DHT22;33568;45.286;9.900;2022-07-12T06:15:04;28.80;58.70
47805;DHT22;33568;45.286;9.900;2022-07-12T06:17:33;28.80;58.70
47805;DHT22;33568;45.286;9.900;2022-07-12T06:20:00;28.70;58.90
47805;DHT22;33568;45.286;9.900;2022-07-12T06:22:26;28.60;59.20
47805;DHT22;33568;45.286;9.900;2022-07-12T06:24:53;28.60;59.40
47805;DHT22;33568;45.286;9.900;2022-07-12T06:27:19;28.50;59.70
47805;DHT22;33568;45.286;9.900;2022-07-12T06:29:46;28.50;59.80
47805;DHT22;33568;45.286;9.900;2022-07-12T06:32:17;28.60;59.80
47805;DHT22;33568;45.286;9.900;2022-07-12T06:34:44;28.50;60.00
47805;DHT22;33568;45.286;9.900;2022-07-12T06:37:10;28.60;60.10
47805;DHT22;33568;45.286;9.900;2022-07-12T06:39:39;28.60;60.10
47805;DHT22;33568;45.286;9.900;2022-07-12T06:42:05;28.60;60.10
47805;DHT22;33568;45.286;9.900;2022-07-12T06:44:33;28.60;60.20
47805;DHT22;33568;45.286;9.900;2022-07-12T06:47:01;28.60;60.30
47805;DHT22;33568;45.286;9.900;2022-07-12T06:49:28;28.60;60.30
47805;DHT22;33568;45.286;9.900;2022-07-12T06:51:54;28.60;60.30
47805;DHT22;33568;45.286;9.900;2022-07-12T06:54:21;28.60;60.20
47805;DHT22;33568;45.286;9.900;2022-07-12T06:56:47;28.70;60.20
47805;DHT22;33568;45.286;9.900;2022-07-12T06:59:13;28.70;60.30
47805;DHT22;33568;45.286;9.900;2022-07-12T07:01:40;28.70;60.50
47805;DHT22;33568;45.286;9.900;2022-07-12T07:04:07;28.70;60.40
47805;DHT22;33568;45.286;9.900;2022-07-12T07:06:33;28.60;60.30
47805;DHT22;33568;45.286;9.900;2022-07-12T07:08:59;28.60;60.20
47805;DHT22;33568;45.286;9.900;2022-07-12T07:11:26;28.80;60.10
47805;DHT22;33568;45.286;9.900;2022-07-12T07:13:52;28.70;59.90
47805;DHT22;33568;45.286;9.900;2022-07-12T07:16:20;28.80;59.90
47805;DHT22;33568;45.286;9.900;2022-07-12T07:18:48;28.80;59.90
47805;DHT22;33568;45.286;9.900;2022-07-12T07:21:14;28.80;60.40
47805;DHT22;33568;45.286;9.900;2022-07-12T07:23:41;29.00;59.80
47805;DHT22;33568;45.286;9.900;2022-07-12T07:26:07;29.20;59.60
47805;DHT22;33568;45.286;9.900;2022-07-12T07:28:34;29.40;59.10
47805;DHT22;33568;45.286;9.900;2022-07-12T07:31:20;29.60;58.90
47805;DHT22;33568;45.286;9.900;2022-07-12T07:33:46;29.70;58.70
47805;DHT22;33568;45.286;9.900;2022-07-12T07:36:13;29.90;58.50
47805;DHT22;33568;45.286;9.900;2022-07-12T07:38:40;29.90;58.10
47805;DHT22;33568;45.286;9.900;2022-07-12T07:41:06;30.00;58.00
47805;DHT22;33568;45.286;9.900;2022-07-12T07:43:33;30.10;57.80
47805;DHT22;33568;45.286;9.900;2022-07-12T07:46:01;30.20;57.60
47805;DHT22;33568;45.286;9.900;2022-07-12T07:48:29;30.10;57.50
47805;DHT22;33568;45.286;9.900;2022-07-12T07:50:56;30.10;57.60
47805;DHT22;33568;45.286;9.900;2022-07-12T07:53:24;30.20;57.60
47805;DHT22;33568;45.286;9.900;2022-07-12T07:55:51;30.20;57.40
47805;DHT22;33568;45.286;9.900;2022-07-12T07:58:17;30.30;57.30
47805;DHT22;33568;45.286;9.900;2022-07-12T08:00:44;30.20;57.20
47805;DHT22;33568;45.286;9.900;2022-07-12T08:03:10;29.90;57.40
47805;DHT22;33568;45.286;9.900;2022-07-12T08:05:37;29.80;57.60
47805;DHT22;33568;45.286;9.900;2022-07-12T08:08:04;29.90;57.80
47805;DHT22;33568;45.286;9.900;2022-07-12T08:10:30;29.90;57.70
47805;DHT22;33568;45.286;9.900;2022-07-12T08:12:57;30.00;57.60
47805;DHT22;33568;45.286;9.900;2022-07-12T08:15:23;30.20;57.50
47805;DHT22;33568;45.286;9.900;2022-07-12T08:17:50;30.40;57.20
47805;DHT22;33568;45.286;9.900;2022-07-12T08:20:17;30.60;57.10
47805;DHT22;33568;45.286;9.900;2022-07-12T08:22:47;30.70;57.10
47805;DHT22;33568;45.286;9.900;2022-07-12T08:25:14;30.80;57.20
47805;DHT22;33568;45.286;9.900;2022-07-12T08:27:41;30.80;57.10
47805;DHT22;33568;45.286;9.900;2022-07-12T08:30:08;30.90;57.10
47805;DHT22;33568;45.286;9.900;2022-07-12T08:32:43;31.10;57.10
47805;DHT22;33568;45.286;9.900;2022-07-12T08:35:10;31.20;56.10
47805;DHT22;33568;45.286;9.900;2022-07-12T08:37:40;31.10;56.30
47805;DHT22;33568;45.286;9.900;2022-07-12T08:40:10;31.10;55.80
47805;DHT22;33568;45.286;9.900;2022-07-12T08:42:40;31.10;55.90
47805;DHT22;33568;45.286;9.900;2022-07-12T08:45:09;31.10;56.10
47805;DHT22;33568;45.286;9.900;2022-07-12T08:47:36;31.00;56.20
47805;DHT22;33568;45.286;9.900;2022-07-12T08:52:46;30.50;56.50
47805;DHT22;33568;45.286;9.900;2022-07-12T08:57:44;30.40;56.80
47805;DHT22;33568;45.286;9.900;2022-07-12T09:00:11;30.30;57.30
47805;DHT22;33568;45.286;9.900;2022-07-12T09:02:49;30.50;57.20
47805;DHT22;33568;45.286;9.900;2022-07-12T09:05:19;30.90;57.00
47805;DHT22;33568;45.286;9.900;2022-07-12T09:07:47;31.20;56.50
47805;DHT22;33568;45.286;9.900;2022-07-12T09:10:14;31.50;56.10
47805;DHT22;33568;45.286;9.900;2022-07-12T09:12:42;31.60;55.80
47805;DHT22;33568;45.286;9.900;2022-07-12T09:15:19;31.90;55.70
47805;DHT22;33568;45.286;9.900;2022-07-12T09:20:31;32.20;54.60
47805;DHT22;33568;45.286;9.900;2022-07-12T09:23:00;32.10;54.80
47805;DHT22;33568;45.286;9.900;2022-07-12T09:25:27;32.10;55.20
47805;DHT22;33568;45.286;9.900;2022-07-12T09:27:58;32.20;54.90
47805;DHT22;33568;45.286;9.900;2022-07-12T09:30:27;32.10;54.80
47805;DHT22;33568;45.286;9.900;2022-07-12T09:32:56;32.20;55.00
47805;DHT22;33568;45.286;9.900;2022-07-12T09:35:58;32.40;54.90
47805;DHT22;33568;45.286;9.900;2022-07-12T09:38:38;32.40;54.70
47805;DHT22;33568;45.286;9.900;2022-07-12T09:41:06;32.50;54.60
47805;DHT22;33568;45.286;9.900;2022-07-12T09:43:34;32.70;54.30
47805;DHT22;33568;45.286;9.900;2022-07-12T09:46:01;32.60;54.20
47805;DHT22;33568;45.286;9.900;2022-07-12T09:48:28;32.60;54.20
47805;DHT22;33568;45.286;9.900;2022-07-12T09:51:00;32.80;54.10
47805;DHT22;33568;45.286;9.900;2022-07-12T09:55:56;32.90;54.00
47805;DHT22;33568;45.286;9.900;2022-07-12T09:58:26;33.00;53.90
47805;DHT22;33568;45.286;9.900;2022-07-12T10:00:54;33.10;53.70
47805;DHT22;33568;45.286;9.900;2022-07-12T10:03:22;32.90;53.90
47805;DHT22;33568;45.286;9.900;2022-07-12T10:05:50;32.90;53.90
47805;DHT22;33568;45.286;9.900;2022-07-12T10:08:19;33.10;53.60
47805;DHT22;33568;45.286;9.900;2022-07-12T10:10:47;33.10;53.00
47805;DHT22;33568;45.286;9.900;2022-07-12T10:13:19;32.90;53.30
47805;DHT22;33568;45.286;9.900;2022-07-12T10:15:50;33.00;53.30
47805;DHT22;33568;45.286;9.900;2022-07-12T10:18:21;33.10;52.90
47805;DHT22;33568;45.286;9.900;2022-07-12T10:20:48;33.10;52.80
47805;DHT22;33568;45.286;9.900;2022-07-12T10:25:58;33.40;52.50
47805;DHT22;33568;45.286;9.900;2022-07-12T10:29:00;33.60;52.40
47805;DHT22;33568;45.286;9.900;2022-07-12T10:31:35;33.60;52.20
47805;DHT22;33568;45.286;9.900;2022-07-12T10:34:15;33.80;52.40
47805;DHT22;33568;45.286;9.900;2022-07-12T10:39:26;34.30;51.90
47805;DHT22;33568;45.286;9.900;2022-07-12T10:44:39;34.50;51.10
47805;DHT22;33568;45.286;9.900;2022-07-12T10:47:08;34.60;51.10
47805;DHT22;33568;45.286;9.900;2022-07-12T10:49:35;34.60;50.80
47805;DHT22;33568;45.286;9.900;2022-07-12T10:55:27;34.30;50.80
47805;DHT22;33568;45.286;9.900;2022-07-12T10:57:42;34.30;51.00
47805;DHT22;33568;45.286;9.900;2022-07-12T11:00:14;34.50;50.90
47805;DHT22;33568;45.286;9.900;2022-07-12T11:02:41;34.80;51.10
47805;DHT22;33568;45.286;9.900;2022-07-12T11:05:10;35.00;50.80
47805;DHT22;33568;45.286;9.900;2022-07-12T11:07:37;35.10;50.70
47805;DHT22;33568;45.286;9.900;2022-07-12T11:10:05;35.10;50.20
47805;DHT22;33568;45.286;9.900;2022-07-12T11:12:32;35.10;50.00
47805;DHT22;33568;45.286;9.900;2022-07-12T11:15:00;35.10;49.90
47805;DHT22;33568;45.286;9.900;2022-07-12T11:17:31;35.10;49.70
47805;DHT22;33568;45.286;9.900;2022-07-12T11:20:12;35.30;49.50
47805;DHT22;33568;45.286;9.900;2022-07-12T11:22:41;35.30;47.80
47805;DHT22;33568;45.286;9.900;2022-07-12T11:25:10;35.30;48.30
47805;DHT22;33568;45.286;9.900;2022-07-12T11:27:38;35.40;48.50
47805;DHT22;33568;45.286;9.900;2022-07-12T11:30:06;35.60;48.60
47805;DHT22;33568;45.286;9.900;2022-07-12T11:32:40;35.70;48.50
47805;DHT22;33568;45.286;9.900;2022-07-12T11:35:23;35.60;48.50
47805;DHT22;33568;45.286;9.900;2022-07-12T11:37:54;35.50;48.40
47805;DHT22;33568;45.286;9.900;2022-07-12T11:40:28;35.50;48.40
47805;DHT22;33568;45.286;9.900;2022-07-12T11:42:57;35.60;48.40
47805;DHT22;33568;45.286;9.900;2022-07-12T11:45:29;35.40;48.00
47805;DHT22;33568;45.286;9.900;2022-07-12T11:47:59;35.40;48.00
47805;DHT22;33568;45.286;9.900;2022-07-12T11:50:26;35.60;48.00
47805;DHT22;33568;45.286;9.900;2022-07-12T11:52:52;35.70;47.80
47805;DHT22;33568;45.286;9.900;2022-07-12T11:55:21;35.70;47.80
47805;DHT22;33568;45.286;9.900;2022-07-12T11:57:48;35.70;47.90
47805;DHT22;33568;45.286;9.900;2022-07-12T12:00:18;35.60;47.90
47805;DHT22;33568;45.286;9.900;2022-07-12T12:02:51;35.70;47.80
47805;DHT22;33568;45.286;9.900;2022-07-12T12:05:20;35.80;47.90
47805;DHT22;33568;45.286;9.900;2022-07-12T12:07:47;35.90;47.70
47805;DHT22;33568;45.286;9.900;2022-07-12T12:10:18;36.00;47.70
47805;DHT22;33568;45.286;9.900;2022-07-12T12:12:57;36.10;47.50
47805;DHT22;33568;45.286;9.900;2022-07-12T12:15:25;36.20;47.40
47805;DHT22;33568;45.286;9.900;2022-07-12T12:18:00;36.40;47.10
47805;DHT22;33568;45.286;9.900;2022-07-12T12:20:29;36.50;46.90
47805;DHT22;33568;45.286;9.900;2022-07-12T12:23:04;36.40;46.80
47805;DHT22;33568;45.286;9.900;2022-07-12T12:25:32;36.20;46.60
47805;DHT22;33568;45.286;9.900;2022-07-12T12:28:01;36.30;46.40
47805;DHT22;33568;45.286;9.900;2022-07-12T12:30:29;36.40;46.20
47805;DHT22;33568;45.286;9.900;2022-07-12T12:33:03;36.40;46.10
47805;DHT22;33568;45.286;9.900;2022-07-12T12:35:33;36.60;45.80
47805;DHT22;33568;45.286;9.900;2022-07-12T12:38:01;36.70;46.00
47805;DHT22;33568;45.286;9.900;2022-07-12T12:40:32;36.60;45.80
47805;DHT22;33568;45.286;9.900;2022-07-12T12:43:13;36.50;45.80
47805;DHT22;33568;45.286;9.900;2022-07-12T12:45:53;36.50;46.50
47805;DHT22;33568;45.286;9.900;2022-07-12T12:48:25;36.80;46.00
47805;DHT22;33568;45.286;9.900;2022-07-12T12:51:09;36.70;46.10
47805;DHT22;33568;45.286;9.900;2022-07-12T12:53:38;36.60;46.20
47805;DHT22;33568;45.286;9.900;2022-07-12T12:56:12;36.40;46.50
47805;DHT22;33568;45.286;9.900;2022-07-12T12:58:39;36.30;46.70
47805;DHT22;33568;45.286;9.900;2022-07-12T13:01:07;36.40;46.80
47805;DHT22;33568;45.286;9.900;2022-07-12T13:03:34;36.30;47.00
47805;DHT22;33568;45.286;9.900;2022-07-12T13:06:01;36.40;47.00
47805;DHT22;33568;45.286;9.900;2022-07-12T13:08:28;36.50;46.80
47805;DHT22;33568;45.286;9.900;2022-07-12T13:10:55;36.60;46.60
47805;DHT22;33568;45.286;9.900;2022-07-12T13:13:40;36.60;46.50
47805;DHT22;33568;45.286;9.900;2022-07-12T13:16:07;36.30;46.40
47805;DHT22;33568;45.286;9.900;2022-07-12T13:18:34;36.30;46.50
47805;DHT22;33568;45.286;9.900;2022-07-12T13:21:00;36.40;46.50
47805;DHT22;33568;45.286;9.900;2022-07-12T13:23:27;36.60;46.40
47805;DHT22;33568;45.286;9.900;2022-07-12T13:25:53;36.70;46.40
47805;DHT22;33568;45.286;9.900;2022-07-12T13:28:20;36.80;46.50
47805;DHT22;33568;45.286;9.900;2022-07-12T13:30:46;36.80;46.60
47805;DHT22;33568;45.286;9.900;2022-07-12T13:33:12;36.80;46.70
47805;DHT22;33568;45.286;9.900;2022-07-12T13:35:41;36.80;46.80
47805;DHT22;33568;45.286;9.900;2022-07-12T13:38:10;36.60;46.60
47805;DHT22;33568;45.286;9.900;2022-07-12T13:40:36;36.40;47.00
47805;DHT22;33568;45.286;9.900;2022-07-12T13:43:03;36.40;47.20
47805;DHT22;33568;45.286;9.900;2022-07-12T13:45:30;36.60;47.20
47805;DHT22;33568;45.286;9.900;2022-07-12T13:47:56;36.60;46.90
47805;DHT22;33568;45.286;9.900;2022-07-12T13:50:23;36.60;46.90
47805;DHT22;33568;45.286;9.900;2022-07-12T13:52:53;36.70;47.10
47805;DHT22;33568;45.286;9.900;2022-07-12T13:55:20;36.80;47.00
47805;DHT22;33568;45.286;9.900;2022-07-12T13:57:46;36.90;46.90
47805;DHT22;33568;45.286;9.900;2022-07-12T14:00:15;36.90;46.90
47805;DHT22;33568;45.286;9.900;2022-07-12T14:02:45;37.00;46.80
47805;DHT22;33568;45.286;9.900;2022-07-12T14:05:12;37.00;46.90
47805;DHT22;33568;45.286;9.900;2022-07-12T14:07:41;36.90;47.10
47805;DHT22;33568;45.286;9.900;2022-07-12T14:10:09;36.90;47.10
47805;DHT22;33568;45.286;9.900;2022-07-12T14:12:36;36.90;46.80
47805;DHT22;33568;45.286;9.900;2022-07-12T14:15:03;36.80;47.00
47805;DHT22;33568;45.286;9.900;2022-07-12T14:17:47;36.70;47.10
47805;DHT22;33568;45.286;9.900;2022-07-12T14:20:18;36.80;47.00
47805;DHT22;33568;45.286;9.900;2022-07-12T14:22:45;36.70;46.70
47805;DHT22;33568;45.286;9.900;2022-07-12T14:25:12;36.60;47.00
47805;DHT22;33568;45.286;9.900;2022-07-12T14:27:39;36.40;47.10
47805;DHT22;33568;45.286;9.900;2022-07-12T14:30:10;36.10;47.20
47805;DHT22;33568;45.286;9.900;2022-07-12T14:32:37;36.10;47.20
47805;DHT22;33568;45.286;9.900;2022-07-12T14:35:05;36.10;47.30
47805;DHT22;33568;45.286;9.900;2022-07-12T14:37:35;36.10;47.20
47805;DHT22;33568;45.286;9.900;2022-07-12T14:40:05;36.10;47.50
47805;DHT22;33568;45.286;9.900;2022-07-12T14:42:32;36.10;47.40
47805;DHT22;33568;45.286;9.900;2022-07-12T14:44:59;36.10;47.40
47805;DHT22;33568;45.286;9.900;2022-07-12T14:47:26;35.90;47.40
47805;DHT22;33568;45.286;9.900;2022-07-12T14:49:52;35.90;47.50
47805;DHT22;33568;45.286;9.900;2022-07-12T14:52:20;35.80;47.60
47805;DHT22;33568;45.286;9.900;2022-07-12T14:54:48;35.80;47.60
47805;DHT22;33568;45.286;9.900;2022-07-12T14:57:17;35.90;47.50
47805;DHT22;33568;45.286;9.900;2022-07-12T14:59:44;36.00;47.40
47805;DHT22;33568;45.286;9.900;2022-07-12T15:02:10;36.00;47.30
47805;DHT22;33568;45.286;9.900;2022-07-12T15:04:36;36.00;47.20
47805;DHT22;33568;45.286;9.900;2022-07-12T15:07:04;35.90;47.00
47805;DHT22;33568;45.286;9.900;2022-07-12T15:09:31;36.10;47.00
47805;DHT22;33568;45.286;9.900;2022-07-12T15:11:57;36.10;46.90
47805;DHT22;33568;45.286;9.900;2022-07-12T15:14:24;36.10;46.80
47805;DHT22;33568;45.286;9.900;2022-07-12T15:16:50;36.10;46.90
47805;DHT22;33568;45.286;9.900;2022-07-12T15:19:17;36.20;46.80
47805;DHT22;33568;45.286;9.900;2022-07-12T15:21:43;36.30;46.50
47805;DHT22;33568;45.286;9.900;2022-07-12T15:24:10;36.20;46.30
47805;DHT22;33568;45.286;9.900;2022-07-12T15:26:36;36.20;46.50
47805;DHT22;33568;45.286;9.900;2022-07-12T15:29:04;36.30;46.30
47805;DHT22;33568;45.286;9.900;2022-07-12T15:31:31;36.50;46.10
47805;DHT22;33568;45.286;9.900;2022-07-12T15:34:00;36.70;46.10
47805;DHT22;33568;45.286;9.900;2022-07-12T15:36:27;36.70;46.10
47805;DHT22;33568;45.286;9.900;2022-07-12T15:38:53;36.60;45.90
47805;DHT22;33568;45.286;9.900;2022-07-12T15:41:21;36.60;46.00
47805;DHT22;33568;45.286;9.900;2022-07-12T15:43:47;36.50;46.00
47805;DHT22;33568;45.286;9.900;2022-07-12T15:46:14;36.50;46.20
47805;DHT22;33568;45.286;9.900;2022-07-12T15:48:40;36.50;46.10
47805;DHT22;33568;45.286;9.900;2022-07-12T15:51:10;36.50;46.10
47805;DHT22;33568;45.286;9.900;2022-07-12T15:53:37;36.40;46.20
47805;DHT22;33568;45.286;9.900;2022-07-12T15:56:07;36.40;46.30
47805;DHT22;33568;45.286;9.900;2022-07-12T15:58:36;36.50;46.30